Kezdőlap
METAR-TAF:

METAR-TAF

Repülőterek :

Rimini, Olaszország

földrajzi szélesség: 44-02N, földrajzi hosszúság: 012-37E, magasság: 12 m

Jelenlegi meteorológiai megfigyelések

A jelentés 16 perccel ezelõtt készült, 19:50 UTC
Déli szél 5 kt
Hőmérséklet 6°C
Páratartalom 93%
Légköri nyomás 1019 hPa
Látótávolság: 4000 m
Párásság

METAR: LIPR 191950Z 19005KT 4000 BR NSC 06/05 Q1019

Idő: 21:06 (20:06 UTC)

Előrejelzés

A jelentés 3 órával és 6 perccel ezelõtt készült, 17:00 UTC
Az előrejelzés 19-én 18 óra UTC és 20-én 03 óra UTC között érvényes
Észak-északnyugati szél 8 kt
Látótávolság: 4000 m
Szórványos felhőzet 3000 lábon
Párásság
19-én 18 óra UTC és 19-én 24 óra UTC között ideiglenes
záporok

TAF: LIPR 191700Z 1918/2003 34008KT 4000 BR SCT030 TEMPO 1918/1924 SHRA

Meteorológiai megfigyelések és előrejelzések több, mint 4000 repülőtéren (METAR és TAF jelentéseket).

A térképen piros és sárga pontok jelzik az elérhető meteorológiai állomásokat.

Mozgassa az egeret a pont fölött, hogy megjelenjen az állomás neve.

Azután kattintson az időjárási megfigyelések és előrejelzések megtekintéséhez.

A térkép megváltoztatása: kattintson a fekete keresztel jelölt zöld gombra ráközelítéshez, a vonallal jelölt zöld gombra távolításhoz, vagy a zöld nyilakra a szomszédos térképek eléréséhez.


METAR-TAF: